sensor_id;sensor_type;location;lat;lon;timestamp;P1;durP1;ratioP1;P2;durP2;ratioP2
13733;SDS011;43298;52.560;13.508;2023-02-12T00:00:44;11.50;;;10.80;;
13733;SDS011;43298;52.560;13.508;2023-02-12T00:03:10;10.07;;;9.57;;
13733;SDS011;43298;52.560;13.508;2023-02-12T00:05:36;10.35;;;9.75;;
13733;SDS011;43298;52.560;13.508;2023-02-12T00:08:03;11.80;;;11.18;;
13733;SDS011;43298;52.560;13.508;2023-02-12T00:10:30;11.15;;;10.38;;
13733;SDS011;43298;52.560;13.508;2023-02-12T00:12:55;12.20;;;11.18;;
13733;SDS011;43298;52.560;13.508;2023-02-12T00:15:21;10.27;;;9.82;;
13733;SDS011;43298;52.560;13.508;2023-02-12T00:17:47;9.43;;;8.93;;
13733;SDS011;43298;52.560;13.508;2023-02-12T00:20:13;10.13;;;9.63;;
13733;SDS011;43298;52.560;13.508;2023-02-12T00:22:39;10.90;;;10.38;;
13733;SDS011;43298;52.560;13.508;2023-02-12T00:25:05;10.52;;;10.02;;
13733;SDS011;43298;52.560;13.508;2023-02-12T00:27:32;13.63;;;10.88;;
13733;SDS011;43298;52.560;13.508;2023-02-12T00:29:59;11.95;;;11.25;;
13733;SDS011;43298;52.560;13.508;2023-02-12T00:32:25;11.18;;;10.30;;
13733;SDS011;43298;52.560;13.508;2023-02-12T00:34:51;10.52;;;10.02;;
13733;SDS011;43298;52.560;13.508;2023-02-12T00:37:16;10.88;;;10.38;;
13733;SDS011;43298;52.560;13.508;2023-02-12T00:39:42;11.38;;;10.65;;
13733;SDS011;43298;52.560;13.508;2023-02-12T00:42:08;10.93;;;10.43;;
13733;SDS011;43298;52.560;13.508;2023-02-12T00:44:34;10.65;;;10.15;;
13733;SDS011;43298;52.560;13.508;2023-02-12T00:47:00;10.55;;;9.95;;
13733;SDS011;43298;52.560;13.508;2023-02-12T00:49:30;11.60;;;10.85;;
13733;SDS011;43298;52.560;13.508;2023-02-12T00:52:00;9.63;;;9.13;;
13733;SDS011;43298;52.560;13.508;2023-02-12T00:54:28;10.55;;;9.90;;
13733;SDS011;43298;52.560;13.508;2023-02-12T00:56:56;10.93;;;10.32;;
13733;SDS011;43298;52.560;13.508;2023-02-12T00:59:22;9.55;;;9.05;;
13733;SDS011;43298;52.560;13.508;2023-02-12T01:01:49;9.45;;;8.85;;
13733;SDS011;43298;52.560;13.508;2023-02-12T01:04:16;9.75;;;9.25;;
13733;SDS011;43298;52.560;13.508;2023-02-12T01:06:42;9.35;;;8.80;;
13733;SDS011;43298;52.560;13.508;2023-02-12T01:09:08;8.60;;;8.20;;
13733;SDS011;43298;52.560;13.508;2023-02-12T01:11:34;9.07;;;8.68;;
13733;SDS011;43298;52.560;13.508;2023-02-12T01:14:00;10.88;;;10.27;;
13733;SDS011;43298;52.560;13.508;2023-02-12T01:16:27;9.52;;;8.82;;
13733;SDS011;43298;52.560;13.508;2023-02-12T01:18:53;9.60;;;9.10;;
13733;SDS011;43298;52.560;13.508;2023-02-12T01:21:21;9.88;;;9.23;;
13733;SDS011;43298;52.560;13.508;2023-02-12T01:23:53;8.75;;;8.35;;
13733;SDS011;43298;52.560;13.508;2023-02-12T01:26:20;10.32;;;9.75;;
13733;SDS011;43298;52.560;13.508;2023-02-12T01:28:51;9.30;;;8.70;;
13733;SDS011;43298;52.560;13.508;2023-02-12T01:31:24;9.07;;;8.50;;
13733;SDS011;43298;52.560;13.508;2023-02-12T01:33:54;10.32;;;9.65;;
13733;SDS011;43298;52.560;13.508;2023-02-12T01:36:22;9.15;;;8.63;;
13733;SDS011;43298;52.560;13.508;2023-02-12T01:38:48;9.40;;;8.88;;
13733;SDS011;43298;52.560;13.508;2023-02-12T01:41:19;8.90;;;8.50;;
13733;SDS011;43298;52.560;13.508;2023-02-12T01:46:57;8.20;;;7.70;;
13733;SDS011;43298;52.560;13.508;2023-02-12T01:49:29;9.35;;;8.85;;
13733;SDS011;43298;52.560;13.508;2023-02-12T01:52:07;13.00;;;7.80;;
13733;SDS011;43298;52.560;13.508;2023-02-12T01:54:40;8.77;;;8.32;;
13733;SDS011;43298;52.560;13.508;2023-02-12T01:57:07;11.05;;;10.43;;
13733;SDS011;43298;52.560;13.508;2023-02-12T01:59:35;8.75;;;8.35;;
13733;SDS011;43298;52.560;13.508;2023-02-12T02:02:03;8.90;;;8.40;;
13733;SDS011;43298;52.560;13.508;2023-02-12T02:04:31;9.30;;;8.70;;
13733;SDS011;43298;52.560;13.508;2023-02-12T02:07:04;9.68;;;9.18;;
13733;SDS011;43298;52.560;13.508;2023-02-12T02:09:33;10.63;;;9.02;;
13733;SDS011;43298;52.560;13.508;2023-02-12T02:12:02;8.65;;;8.25;;
13733;SDS011;43298;52.560;13.508;2023-02-12T02:14:47;10.50;;;9.90;;
13733;SDS011;43298;52.560;13.508;2023-02-12T02:17:19;9.40;;;8.85;;
13733;SDS011;43298;52.560;13.508;2023-02-12T02:25:52;9.77;;;9.27;;
13733;SDS011;43298;52.560;13.508;2023-02-12T02:29:27;9.88;;;9.18;;
13733;SDS011;43298;52.560;13.508;2023-02-12T02:32:16;9.43;;;8.93;;
13733;SDS011;43298;52.560;13.508;2023-02-12T02:37:55;7.95;;;7.45;;
13733;SDS011;43298;52.560;13.508;2023-02-12T02:40:54;8.65;;;8.20;;
13733;SDS011;43298;52.560;13.508;2023-02-12T02:43:39;8.15;;;7.65;;
13733;SDS011;43298;52.560;13.508;2023-02-12T02:49:01;12.38;;;8.70;;
13733;SDS011;43298;52.560;13.508;2023-02-12T02:51:33;8.40;;;7.90;;
13733;SDS011;43298;52.560;13.508;2023-02-12T02:54:08;9.23;;;8.60;;
13733;SDS011;43298;52.560;13.508;2023-02-12T02:56:37;8.50;;;8.00;;
13733;SDS011;43298;52.560;13.508;2023-02-12T02:59:07;8.13;;;7.72;;
13733;SDS011;43298;52.560;13.508;2023-02-12T03:01:44;8.73;;;8.32;;
13733;SDS011;43298;52.560;13.508;2023-02-12T03:04:30;7.07;;;6.78;;
13733;SDS011;43298;52.560;13.508;2023-02-12T03:10:03;8.38;;;7.97;;
13733;SDS011;43298;52.560;13.508;2023-02-12T03:12:36;8.65;;;8.25;;
13733;SDS011;43298;52.560;13.508;2023-02-12T03:15:18;7.53;;;7.15;;
13733;SDS011;43298;52.560;13.508;2023-02-12T03:17:59;8.95;;;8.40;;
13733;SDS011;43298;52.560;13.508;2023-02-12T03:20:35;7.53;;;7.18;;
13733;SDS011;43298;52.560;13.508;2023-02-12T03:23:10;8.98;;;8.48;;
13733;SDS011;43298;52.560;13.508;2023-02-12T03:25:52;8.88;;;7.28;;
13733;SDS011;43298;52.560;13.508;2023-02-12T03:28:32;9.05;;;8.35;;
13733;SDS011;43298;52.560;13.508;2023-02-12T03:33:57;8.75;;;8.35;;
13733;SDS011;43298;52.560;13.508;2023-02-12T03:42:23;8.15;;;7.68;;
13733;SDS011;43298;52.560;13.508;2023-02-12T03:50:56;8.85;;;8.35;;
13733;SDS011;43298;52.560;13.508;2023-02-12T03:53:44;8.30;;;7.90;;
13733;SDS011;43298;52.560;13.508;2023-02-12T03:56:16;15.73;;;7.78;;
13733;SDS011;43298;52.560;13.508;2023-02-12T03:58:53;8.32;;;7.93;;
13733;SDS011;43298;52.560;13.508;2023-02-12T04:01:19;8.60;;;8.20;;
13733;SDS011;43298;52.560;13.508;2023-02-12T04:03:44;8.25;;;7.85;;
13733;SDS011;43298;52.560;13.508;2023-02-12T04:06:24;9.07;;;8.43;;
13733;SDS011;43298;52.560;13.508;2023-02-12T04:08:56;16.65;;;8.45;;
13733;SDS011;43298;52.560;13.508;2023-02-12T04:11:32;8.68;;;8.18;;
13733;SDS011;43298;52.560;13.508;2023-02-12T04:17:43;9.30;;;7.75;;
13733;SDS011;43298;52.560;13.508;2023-02-12T04:31:29;8.60;;;8.00;;
13733;SDS011;43298;52.560;13.508;2023-02-12T04:34:24;9.50;;;8.93;;
13733;SDS011;43298;52.560;13.508;2023-02-12T04:37:18;8.68;;;8.18;;
13733;SDS011;43298;52.560;13.508;2023-02-12T04:39:52;7.97;;;7.57;;
13733;SDS011;43298;52.560;13.508;2023-02-12T04:42:18;9.98;;;8.98;;
13733;SDS011;43298;52.560;13.508;2023-02-12T04:44:45;10.95;;;7.90;;
13733;SDS011;43298;52.560;13.508;2023-02-12T04:47:11;8.07;;;7.65;;
13733;SDS011;43298;52.560;13.508;2023-02-12T04:49:39;13.88;;;9.32;;
13733;SDS011;43298;52.560;13.508;2023-02-12T04:52:05;9.40;;;8.70;;
13733;SDS011;43298;52.560;13.508;2023-02-12T04:54:31;9.63;;;7.88;;
13733;SDS011;43298;52.560;13.508;2023-02-12T04:56:57;9.95;;;9.15;;
13733;SDS011;43298;52.560;13.508;2023-02-12T04:59:23;8.38;;;7.97;;
13733;SDS011;43298;52.560;13.508;2023-02-12T05:01:49;8.25;;;7.75;;
13733;SDS011;43298;52.560;13.508;2023-02-12T05:04:15;9.23;;;8.45;;
13733;SDS011;43298;52.560;13.508;2023-02-12T05:06:43;9.02;;;8.52;;
13733;SDS011;43298;52.560;13.508;2023-02-12T05:09:14;8.40;;;8.00;;
13733;SDS011;43298;52.560;13.508;2023-02-12T05:11:43;8.85;;;8.35;;
13733;SDS011;43298;52.560;13.508;2023-02-12T05:14:09;8.20;;;7.50;;
13733;SDS011;43298;52.560;13.508;2023-02-12T05:16:36;9.68;;;9.00;;
13733;SDS011;43298;52.560;13.508;2023-02-12T05:19:02;10.95;;;10.25;;
13733;SDS011;43298;52.560;13.508;2023-02-12T05:21:27;8.40;;;8.00;;
13733;SDS011;43298;52.560;13.508;2023-02-12T05:23:53;10.98;;;10.02;;
13733;SDS011;43298;52.560;13.508;2023-02-12T05:26:19;8.82;;;8.43;;
13733;SDS011;43298;52.560;13.508;2023-02-12T05:28:46;9.13;;;8.57;;
13733;SDS011;43298;52.560;13.508;2023-02-12T05:31:13;8.75;;;8.25;;
13733;SDS011;43298;52.560;13.508;2023-02-12T05:33:42;8.90;;;8.27;;
13733;SDS011;43298;52.560;13.508;2023-02-12T05:36:10;8.68;;;8.18;;
13733;SDS011;43298;52.560;13.508;2023-02-12T05:38:41;9.15;;;8.13;;
13733;SDS011;43298;52.560;13.508;2023-02-12T05:41:11;8.95;;;8.35;;
13733;SDS011;43298;52.560;13.508;2023-02-12T05:43:43;8.60;;;8.10;;
13733;SDS011;43298;52.560;13.508;2023-02-12T05:46:10;8.20;;;7.60;;
13733;SDS011;43298;52.560;13.508;2023-02-12T05:48:36;9.40;;;8.90;;
13733;SDS011;43298;52.560;13.508;2023-02-12T05:51:08;10.30;;;9.27;;
13733;SDS011;43298;52.560;13.508;2023-02-12T05:53:40;10.23;;;9.52;;
13733;SDS011;43298;52.560;13.508;2023-02-12T05:58:56;8.15;;;7.55;;
13733;SDS011;43298;52.560;13.508;2023-02-12T06:01:30;8.02;;;7.53;;
13733;SDS011;43298;52.560;13.508;2023-02-12T06:04:02;9.65;;;8.75;;
13733;SDS011;43298;52.560;13.508;2023-02-12T06:06:30;7.40;;;7.00;;
13733;SDS011;43298;52.560;13.508;2023-02-12T06:08:58;7.60;;;7.20;;
13733;SDS011;43298;52.560;13.508;2023-02-12T06:11:24;7.55;;;7.25;;
13733;SDS011;43298;52.560;13.508;2023-02-12T06:13:50;7.50;;;7.10;;
13733;SDS011;43298;52.560;13.508;2023-02-12T06:18:43;8.95;;;8.25;;
13733;SDS011;43298;52.560;13.508;2023-02-12T06:21:09;9.85;;;7.57;;
13733;SDS011;43298;52.560;13.508;2023-02-12T06:23:35;11.02;;;8.40;;
13733;SDS011;43298;52.560;13.508;2023-02-12T06:26:01;8.73;;;8.15;;
13733;SDS011;43298;52.560;13.508;2023-02-12T06:28:26;13.52;;;8.63;;
13733;SDS011;43298;52.560;13.508;2023-02-12T06:30:52;8.70;;;8.25;;
13733;SDS011;43298;52.560;13.508;2023-02-12T06:33:18;8.27;;;7.85;;
13733;SDS011;43298;52.560;13.508;2023-02-12T06:35:44;9.85;;;9.00;;
13733;SDS011;43298;52.560;13.508;2023-02-12T06:38:10;8.30;;;7.78;;
13733;SDS011;43298;52.560;13.508;2023-02-12T06:40:36;8.85;;;8.15;;
13733;SDS011;43298;52.560;13.508;2023-02-12T06:43:02;8.93;;;8.43;;
13733;SDS011;43298;52.560;13.508;2023-02-12T06:45:27;8.80;;;8.25;;
13733;SDS011;43298;52.560;13.508;2023-02-12T06:47:53;9.05;;;8.55;;
13733;SDS011;43298;52.560;13.508;2023-02-12T06:50:19;7.32;;;6.97;;
13733;SDS011;43298;52.560;13.508;2023-02-12T06:52:45;8.77;;;8.15;;
13733;SDS011;43298;52.560;13.508;2023-02-12T06:55:11;8.48;;;7.80;;
13733;SDS011;43298;52.560;13.508;2023-02-12T06:57:37;7.80;;;7.40;;
13733;SDS011;43298;52.560;13.508;2023-02-12T07:00:02;8.13;;;7.72;;
13733;SDS011;43298;52.560;13.508;2023-02-12T07:02:29;9.32;;;8.80;;
13733;SDS011;43298;52.560;13.508;2023-02-12T07:04:55;10.73;;;9.77;;
13733;SDS011;43298;52.560;13.508;2023-02-12T07:07:21;8.57;;;8.10;;
13733;SDS011;43298;52.560;13.508;2023-02-12T07:09:46;8.80;;;8.25;;
13733;SDS011;43298;52.560;13.508;2023-02-12T07:12:13;8.40;;;8.00;;
13733;SDS011;43298;52.560;13.508;2023-02-12T07:14:38;9.32;;;8.07;;
13733;SDS011;43298;52.560;13.508;2023-02-12T07:17:04;9.57;;;9.07;;
13733;SDS011;43298;52.560;13.508;2023-02-12T07:19:32;7.63;;;7.18;;
13733;SDS011;43298;52.560;13.508;2023-02-12T07:21:57;8.65;;;8.25;;
13733;SDS011;43298;52.560;13.508;2023-02-12T07:24:23;9.10;;;8.50;;
13733;SDS011;43298;52.560;13.508;2023-02-12T07:26:49;8.25;;;7.85;;
13733;SDS011;43298;52.560;13.508;2023-02-12T07:29:15;9.18;;;8.40;;
13733;SDS011;43298;52.560;13.508;2023-02-12T07:31:41;8.52;;;8.10;;
13733;SDS011;43298;52.560;13.508;2023-02-12T07:34:07;8.43;;;8.02;;
13733;SDS011;43298;52.560;13.508;2023-02-12T07:36:35;10.75;;;9.90;;
13733;SDS011;43298;52.560;13.508;2023-02-12T07:39:01;9.10;;;8.45;;
13733;SDS011;43298;52.560;13.508;2023-02-12T07:41:29;9.10;;;8.60;;
13733;SDS011;43298;52.560;13.508;2023-02-12T07:43:59;10.82;;;9.65;;
13733;SDS011;43298;52.560;13.508;2023-02-12T07:46:29;9.95;;;9.45;;
13733;SDS011;43298;52.560;13.508;2023-02-12T07:48:58;10.00;;;9.40;;
13733;SDS011;43298;52.560;13.508;2023-02-12T07:51:27;9.55;;;9.05;;
13733;SDS011;43298;52.560;13.508;2023-02-12T07:53:53;8.30;;;7.93;;
13733;SDS011;43298;52.560;13.508;2023-02-12T07:56:23;9.93;;;8.98;;
13733;SDS011;43298;52.560;13.508;2023-02-12T07:58:56;10.63;;;10.13;;
13733;SDS011;43298;52.560;13.508;2023-02-12T08:01:31;10.35;;;9.85;;
13733;SDS011;43298;52.560;13.508;2023-02-12T08:04:00;10.20;;;9.60;;
13733;SDS011;43298;52.560;13.508;2023-02-12T08:06:30;10.77;;;10.20;;
13733;SDS011;43298;52.560;13.508;2023-02-12T08:09:00;10.55;;;9.82;;
13733;SDS011;43298;52.560;13.508;2023-02-12T08:11:29;10.93;;;10.23;;
13733;SDS011;43298;52.560;13.508;2023-02-12T08:13:55;9.25;;;8.80;;
13733;SDS011;43298;52.560;13.508;2023-02-12T08:16:24;8.98;;;8.52;;
13733;SDS011;43298;52.560;13.508;2023-02-12T08:18:52;10.93;;;10.05;;
13733;SDS011;43298;52.560;13.508;2023-02-12T08:21:20;8.85;;;8.40;;
13733;SDS011;43298;52.560;13.508;2023-02-12T08:23:48;8.90;;;8.25;;
13733;SDS011;43298;52.560;13.508;2023-02-12T08:28:45;8.90;;;8.40;;
13733;SDS011;43298;52.560;13.508;2023-02-12T08:31:15;9.63;;;9.02;;
13733;SDS011;43298;52.560;13.508;2023-02-12T08:33:45;10.00;;;9.40;;
13733;SDS011;43298;52.560;13.508;2023-02-12T08:36:14;10.00;;;9.10;;
13733;SDS011;43298;52.560;13.508;2023-02-12T08:38:48;10.13;;;9.32;;
13733;SDS011;43298;52.560;13.508;2023-02-12T08:41:15;10.10;;;9.50;;
13733;SDS011;43298;52.560;13.508;2023-02-12T08:43:47;9.98;;;9.38;;
13733;SDS011;43298;52.560;13.508;2023-02-12T08:46:21;9.45;;;8.95;;
13733;SDS011;43298;52.560;13.508;2023-02-12T08:48:57;9.52;;;9.00;;
13733;SDS011;43298;52.560;13.508;2023-02-12T08:51:26;12.35;;;11.60;;
13733;SDS011;43298;52.560;13.508;2023-02-12T08:53:59;9.90;;;9.30;;
13733;SDS011;43298;52.560;13.508;2023-02-12T08:56:28;9.35;;;8.43;;
13733;SDS011;43298;52.560;13.508;2023-02-12T08:58:58;9.68;;;8.98;;
13733;SDS011;43298;52.560;13.508;2023-02-12T09:01:26;9.63;;;9.13;;
13733;SDS011;43298;52.560;13.508;2023-02-12T09:03:55;12.05;;;10.90;;
13733;SDS011;43298;52.560;13.508;2023-02-12T09:06:22;10.50;;;9.93;;
13733;SDS011;43298;52.560;13.508;2023-02-12T09:08:49;15.25;;;14.35;;
13733;SDS011;43298;52.560;13.508;2023-02-12T09:11:19;15.57;;;14.48;;
13733;SDS011;43298;52.560;13.508;2023-02-12T09:13:57;13.15;;;12.38;;
13733;SDS011;43298;52.560;13.508;2023-02-12T09:16:30;14.75;;;13.75;;
13733;SDS011;43298;52.560;13.508;2023-02-12T09:18:57;14.32;;;13.63;;
13733;SDS011;43298;52.560;13.508;2023-02-12T09:21:23;12.48;;;11.73;;
13733;SDS011;43298;52.560;13.508;2023-02-12T09:23:49;12.07;;;11.38;;
13733;SDS011;43298;52.560;13.508;2023-02-12T09:26:16;12.27;;;11.38;;
13733;SDS011;43298;52.560;13.508;2023-02-12T09:28:45;11.57;;;10.98;;
13733;SDS011;43298;52.560;13.508;2023-02-12T09:31:13;11.00;;;9.82;;
13733;SDS011;43298;52.560;13.508;2023-02-12T09:33:47;11.90;;;10.27;;
13733;SDS011;43298;52.560;13.508;2023-02-12T09:36:14;10.82;;;10.10;;
13733;SDS011;43298;52.560;13.508;2023-02-12T09:38:41;11.40;;;10.88;;
13733;SDS011;43298;52.560;13.508;2023-02-12T09:46:49;11.52;;;10.85;;
13733;SDS011;43298;52.560;13.508;2023-02-12T09:49:22;11.38;;;10.85;;
13733;SDS011;43298;52.560;13.508;2023-02-12T09:51:51;8.95;;;8.55;;
13733;SDS011;43298;52.560;13.508;2023-02-12T09:54:20;11.10;;;9.85;;
13733;SDS011;43298;52.560;13.508;2023-02-12T09:56:57;10.60;;;10.00;;
13733;SDS011;43298;52.560;13.508;2023-02-12T10:02:15;8.55;;;8.02;;
13733;SDS011;43298;52.560;13.508;2023-02-12T10:04:44;12.00;;;10.95;;
13733;SDS011;43298;52.560;13.508;2023-02-12T10:07:18;9.80;;;9.40;;
13733;SDS011;43298;52.560;13.508;2023-02-12T10:24:15;12.07;;;11.40;;
13733;SDS011;43298;52.560;13.508;2023-02-12T10:27:16;11.55;;;10.90;;
13733;SDS011;43298;52.560;13.508;2023-02-12T10:29:47;10.95;;;10.35;;
13733;SDS011;43298;52.560;13.508;2023-02-12T10:34:51;10.95;;;10.35;;
13733;SDS011;43298;52.560;13.508;2023-02-12T10:37:22;12.35;;;11.65;;
13733;SDS011;43298;52.560;13.508;2023-02-12T10:40:26;12.02;;;11.10;;
13733;SDS011;43298;52.560;13.508;2023-02-12T10:42:58;10.63;;;10.13;;
13733;SDS011;43298;52.560;13.508;2023-02-12T10:45:29;11.73;;;10.95;;
13733;SDS011;43298;52.560;13.508;2023-02-12T10:48:18;9.57;;;9.00;;
13733;SDS011;43298;52.560;13.508;2023-02-12T10:53:32;9.68;;;9.07;;
13733;SDS011;43298;52.560;13.508;2023-02-12T11:01:24;9.77;;;9.20;;
13733;SDS011;43298;52.560;13.508;2023-02-12T11:04:17;11.43;;;10.82;;
13733;SDS011;43298;52.560;13.508;2023-02-12T11:09:42;10.50;;;9.93;;
13733;SDS011;43298;52.560;13.508;2023-02-12T11:15:14;9.80;;;9.18;;
13733;SDS011;43298;52.560;13.508;2023-02-12T11:17:56;10.43;;;9.93;;
13733;SDS011;43298;52.560;13.508;2023-02-12T11:20:31;10.00;;;9.60;;
13733;SDS011;43298;52.560;13.508;2023-02-12T11:28:51;12.02;;;10.80;;
13733;SDS011;43298;52.560;13.508;2023-02-12T11:31:26;11.98;;;11.27;;
13733;SDS011;43298;52.560;13.508;2023-02-12T11:36:37;12.20;;;11.57;;
13733;SDS011;43298;52.560;13.508;2023-02-12T11:39:20;9.55;;;9.02;;
13733;SDS011;43298;52.560;13.508;2023-02-12T11:41:54;10.73;;;9.88;;
13733;SDS011;43298;52.560;13.508;2023-02-12T11:44:25;9.30;;;8.80;;
13733;SDS011;43298;52.560;13.508;2023-02-12T11:47:01;10.38;;;9.70;;
13733;SDS011;43298;52.560;13.508;2023-02-12T11:49:33;9.48;;;8.88;;
13733;SDS011;43298;52.560;13.508;2023-02-12T11:52:23;8.45;;;8.05;;
13733;SDS011;43298;52.560;13.508;2023-02-12T11:54:54;10.70;;;9.75;;
13733;SDS011;43298;52.560;13.508;2023-02-12T11:57:46;10.05;;;9.45;;
13733;SDS011;43298;52.560;13.508;2023-02-12T12:00:20;9.18;;;8.68;;
13733;SDS011;43298;52.560;13.508;2023-02-12T12:05:45;9.45;;;8.93;;
13733;SDS011;43298;52.560;13.508;2023-02-12T12:08:23;11.10;;;10.30;;
13733;SDS011;43298;52.560;13.508;2023-02-12T12:11:03;10.20;;;9.70;;
13733;SDS011;43298;52.560;13.508;2023-02-12T12:13:41;11.02;;;10.52;;
13733;SDS011;43298;52.560;13.508;2023-02-12T12:16:26;11.63;;;11.13;;
13733;SDS011;43298;52.560;13.508;2023-02-12T12:19:20;12.13;;;11.43;;
13733;SDS011;43298;52.560;13.508;2023-02-12T12:22:29;13.32;;;12.73;;
13733;SDS011;43298;52.560;13.508;2023-02-12T12:25:28;12.90;;;12.27;;
13733;SDS011;43298;52.560;13.508;2023-02-12T12:33:55;11.65;;;11.07;;
13733;SDS011;43298;52.560;13.508;2023-02-12T12:36:36;13.13;;;12.52;;
13733;SDS011;43298;52.560;13.508;2023-02-12T12:39:42;11.50;;;11.00;;
13733;SDS011;43298;52.560;13.508;2023-02-12T12:48:31;11.82;;;11.20;;
13733;SDS011;43298;52.560;13.508;2023-02-12T12:51:42;10.85;;;10.25;;
13733;SDS011;43298;52.560;13.508;2023-02-12T13:16:50;8.18;;;7.72;;
13733;SDS011;43298;52.560;13.508;2023-02-12T13:22:46;10.30;;;9.90;;
13733;SDS011;43298;52.560;13.508;2023-02-12T13:28:32;9.15;;;8.75;;
13733;SDS011;43298;52.560;13.508;2023-02-12T13:31:06;9.95;;;9.45;;
13733;SDS011;43298;52.560;13.508;2023-02-12T13:33:48;9.80;;;9.40;;
13733;SDS011;43298;52.560;13.508;2023-02-12T13:36:19;12.90;;;12.23;;
13733;SDS011;43298;52.560;13.508;2023-02-12T13:41:22;15.35;;;14.65;;
13733;SDS011;43298;52.560;13.508;2023-02-12T13:46:49;12.80;;;12.15;;
13733;SDS011;43298;52.560;13.508;2023-02-12T13:49:40;12.98;;;12.38;;
13733;SDS011;43298;52.560;13.508;2023-02-12T13:52:16;11.77;;;11.18;;
13733;SDS011;43298;52.560;13.508;2023-02-12T13:55:22;11.10;;;10.60;;
13733;SDS011;43298;52.560;13.508;2023-02-12T14:01:12;10.82;;;10.32;;
13733;SDS011;43298;52.560;13.508;2023-02-12T14:07:18;10.07;;;9.68;;
13733;SDS011;43298;52.560;13.508;2023-02-12T14:15:35;8.40;;;8.00;;
13733;SDS011;43298;52.560;13.508;2023-02-12T14:18:11;8.10;;;7.55;;
13733;SDS011;43298;52.560;13.508;2023-02-12T14:23:37;9.23;;;8.82;;
13733;SDS011;43298;52.560;13.508;2023-02-12T14:26:11;9.35;;;8.85;;
13733;SDS011;43298;52.560;13.508;2023-02-12T14:28:54;9.93;;;9.25;;
13733;SDS011;43298;52.560;13.508;2023-02-12T14:39:25;8.70;;;8.13;;
13733;SDS011;43298;52.560;13.508;2023-02-12T14:44:46;8.93;;;8.52;;
13733;SDS011;43298;52.560;13.508;2023-02-12T14:49:53;8.30;;;7.90;;
13733;SDS011;43298;52.560;13.508;2023-02-12T14:52:23;7.95;;;7.55;;
13733;SDS011;43298;52.560;13.508;2023-02-12T14:54:58;8.45;;;8.05;;
13733;SDS011;43298;52.560;13.508;2023-02-12T14:57:55;8.82;;;8.43;;
13733;SDS011;43298;52.560;13.508;2023-02-12T15:00:28;7.93;;;7.53;;
13733;SDS011;43298;52.560;13.508;2023-02-12T15:05:37;8.85;;;8.45;;
13733;SDS011;43298;52.560;13.508;2023-02-12T15:08:29;8.73;;;8.32;;
13733;SDS011;43298;52.560;13.508;2023-02-12T15:14:14;8.57;;;8.18;;
13733;SDS011;43298;52.560;13.508;2023-02-12T15:17:15;8.27;;;7.90;;
13733;SDS011;43298;52.560;13.508;2023-02-12T15:19:56;9.38;;;8.90;;
13733;SDS011;43298;52.560;13.508;2023-02-12T15:22:29;9.98;;;9.43;;
13733;SDS011;43298;52.560;13.508;2023-02-12T15:25:26;10.45;;;9.73;;
13733;SDS011;43298;52.560;13.508;2023-02-12T15:30:48;10.77;;;10.27;;
13733;SDS011;43298;52.560;13.508;2023-02-12T15:33:20;10.35;;;9.85;;
13733;SDS011;43298;52.560;13.508;2023-02-12T15:35:56;11.93;;;11.40;;
13733;SDS011;43298;52.560;13.508;2023-02-12T15:38:41;11.18;;;10.63;;
13733;SDS011;43298;52.560;13.508;2023-02-12T15:41:07;10.23;;;9.70;;
13733;SDS011;43298;52.560;13.508;2023-02-12T15:43:47;10.35;;;9.85;;
13733;SDS011;43298;52.560;13.508;2023-02-12T15:46:14;8.90;;;8.40;;
13733;SDS011;43298;52.560;13.508;2023-02-12T15:48:42;9.57;;;9.18;;
13733;SDS011;43298;52.560;13.508;2023-02-12T15:53:50;9.82;;;9.05;;
13733;SDS011;43298;52.560;13.508;2023-02-12T15:56:21;9.82;;;9.32;;
13733;SDS011;43298;52.560;13.508;2023-02-12T16:01:26;9.10;;;8.68;;
13733;SDS011;43298;52.560;13.508;2023-02-12T16:03:58;20.40;;;9.32;;
13733;SDS011;43298;52.560;13.508;2023-02-12T16:06:25;9.65;;;9.25;;
13733;SDS011;43298;52.560;13.508;2023-02-12T16:11:30;10.80;;;10.23;;
13733;SDS011;43298;52.560;13.508;2023-02-12T16:13:59;9.63;;;9.02;;
13733;SDS011;43298;52.560;13.508;2023-02-12T16:19:20;12.05;;;11.13;;
13733;SDS011;43298;52.560;13.508;2023-02-12T16:21:59;11.27;;;10.50;;
13733;SDS011;43298;52.560;13.508;2023-02-12T16:24:39;10.50;;;10.00;;
13733;SDS011;43298;52.560;13.508;2023-02-12T16:29:47;10.15;;;9.65;;
13733;SDS011;43298;52.560;13.508;2023-02-12T16:35:21;11.48;;;10.98;;
13733;SDS011;43298;52.560;13.508;2023-02-12T16:37:49;12.52;;;11.93;;
13733;SDS011;43298;52.560;13.508;2023-02-12T16:40:38;12.18;;;11.40;;
13733;SDS011;43298;52.560;13.508;2023-02-12T16:43:20;12.95;;;12.23;;
13733;SDS011;43298;52.560;13.508;2023-02-12T16:45:50;12.70;;;12.10;;
13733;SDS011;43298;52.560;13.508;2023-02-12T16:48:28;12.90;;;12.13;;
13733;SDS011;43298;52.560;13.508;2023-02-12T16:50:56;12.82;;;12.07;;
13733;SDS011;43298;52.560;13.508;2023-02-12T16:53:25;13.38;;;12.77;;
13733;SDS011;43298;52.560;13.508;2023-02-12T16:55:56;13.73;;;13.07;;
13733;SDS011;43298;52.560;13.508;2023-02-12T16:58:24;12.18;;;11.38;;
13733;SDS011;43298;52.560;13.508;2023-02-12T17:00:50;14.05;;;13.35;;
13733;SDS011;43298;52.560;13.508;2023-02-12T17:03:21;15.43;;;14.73;;
13733;SDS011;43298;52.560;13.508;2023-02-12T17:05:48;15.48;;;14.68;;
13733;SDS011;43298;52.560;13.508;2023-02-12T17:08:17;13.93;;;13.10;;
13733;SDS011;43298;52.560;13.508;2023-02-12T17:10:46;12.93;;;12.32;;
13733;SDS011;43298;52.560;13.508;2023-02-12T17:13:13;13.57;;;12.98;;
13733;SDS011;43298;52.560;13.508;2023-02-12T17:18:25;12.77;;;12.18;;
13733;SDS011;43298;52.560;13.508;2023-02-12T17:20:55;12.95;;;12.30;;
13733;SDS011;43298;52.560;13.508;2023-02-12T17:23:29;13.63;;;13.02;;
13733;SDS011;43298;52.560;13.508;2023-02-12T17:25:55;15.48;;;11.43;;
13733;SDS011;43298;52.560;13.508;2023-02-12T17:28:21;12.30;;;11.77;;
13733;SDS011;43298;52.560;13.508;2023-02-12T17:30:49;11.90;;;11.40;;
13733;SDS011;43298;52.560;13.508;2023-02-12T17:33:16;11.65;;;11.15;;
13733;SDS011;43298;52.560;13.508;2023-02-12T17:35:43;13.57;;;12.88;;
13733;SDS011;43298;52.560;13.508;2023-02-12T17:38:09;12.85;;;12.25;;
13733;SDS011;43298;52.560;13.508;2023-02-12T17:40:36;11.95;;;11.43;;
13733;SDS011;43298;52.560;13.508;2023-02-12T17:43:03;11.18;;;10.68;;
13733;SDS011;43298;52.560;13.508;2023-02-12T17:45:30;10.95;;;10.25;;
13733;SDS011;43298;52.560;13.508;2023-02-12T17:47:57;11.95;;;10.90;;
13733;SDS011;43298;52.560;13.508;2023-02-12T17:50:23;10.85;;;10.35;;
13733;SDS011;43298;52.560;13.508;2023-02-12T17:52:49;11.43;;;10.82;;
13733;SDS011;43298;52.560;13.508;2023-02-12T17:55:16;10.20;;;9.70;;
13733;SDS011;43298;52.560;13.508;2023-02-12T17:57:42;10.73;;;10.25;;
13733;SDS011;43298;52.560;13.508;2023-02-12T18:00:09;10.27;;;9.88;;
13733;SDS011;43298;52.560;13.508;2023-02-12T18:02:37;9.60;;;9.07;;
13733;SDS011;43298;52.560;13.508;2023-02-12T18:05:03;10.38;;;9.85;;
13733;SDS011;43298;52.560;13.508;2023-02-12T18:07:33;11.63;;;11.02;;
13733;SDS011;43298;52.560;13.508;2023-02-12T18:12:29;10.38;;;9.80;;
13733;SDS011;43298;52.560;13.508;2023-02-12T18:14:57;10.15;;;9.65;;
13733;SDS011;43298;52.560;13.508;2023-02-12T18:17:24;9.45;;;8.95;;
13733;SDS011;43298;52.560;13.508;2023-02-12T18:19:51;10.15;;;9.45;;
13733;SDS011;43298;52.560;13.508;2023-02-12T18:22:18;9.43;;;9.02;;